createdAt,value
2023-04-30T00:01:30.294Z,99610.13
2023-04-30T00:03:02.574Z,99601.56
2023-04-30T00:04:34.880Z,99601.66
2023-04-30T00:06:07.020Z,99604.25
2023-04-30T00:07:42.708Z,99599.13
2023-04-30T00:09:14.836Z,99602.63
2023-04-30T00:10:46.948Z,99604.41
2023-04-30T00:12:19.155Z,99594.97
2023-04-30T00:13:51.531Z,99595.06
2023-04-30T00:15:23.822Z,99597.75
2023-04-30T00:16:55.952Z,99595.28
2023-04-30T00:18:28.125Z,99589.38
2023-04-30T00:20:00.185Z,99590.34
2023-04-30T00:21:32.440Z,99591.28
2023-04-30T00:23:04.578Z,99588.78
2023-04-30T00:24:36.702Z,99585.47
2023-04-30T00:26:08.770Z,99584.66
2023-04-30T00:27:41.189Z,99580.38
2023-04-30T00:29:13.358Z,99577.00
2023-04-30T00:30:46.285Z,99582.16
2023-04-30T00:32:18.377Z,99578.78
2023-04-30T00:33:50.576Z,99575.38
2023-04-30T00:35:22.693Z,99577.13
2023-04-30T00:36:54.866Z,99579.81
2023-04-30T00:38:27.131Z,99579.03
2023-04-30T00:39:59.299Z,99582.56
2023-04-30T00:41:32.353Z,99576.59
2023-04-30T00:43:04.497Z,99586.97
2023-04-30T00:44:36.574Z,99577.53
2023-04-30T00:46:08.692Z,99580.97
2023-04-30T00:47:41.604Z,99579.22
2023-04-30T00:49:13.904Z,99576.66
2023-04-30T00:50:46.064Z,99573.25
2023-04-30T00:52:18.191Z,99571.53
2023-04-30T00:53:50.222Z,99581.88
2023-04-30T00:55:22.440Z,99580.97
2023-04-30T00:56:54.610Z,99578.41
2023-04-30T00:58:26.815Z,99571.50
2023-04-30T00:59:59.584Z,99569.78
2023-04-30T01:01:32.389Z,99572.38
2023-04-30T01:03:04.720Z,99567.25
2023-04-30T01:04:37.123Z,99566.41
2023-04-30T01:06:09.146Z,99569.00
2023-04-30T01:07:46.661Z,99570.75
2023-04-30T01:09:19.140Z,99574.25
2023-04-30T01:11:09.911Z,99569.06
2023-04-30T01:12:58.181Z,99574.25
2023-04-30T01:15:01.228Z,99578.59
2023-04-30T01:16:37.036Z,99582.16
2023-04-30T01:18:28.885Z,99575.28
2023-04-30T01:20:01.549Z,99573.63
2023-04-30T01:21:34.074Z,99579.69
2023-04-30T01:23:27.611Z,99575.34
2023-04-30T01:25:03.821Z,99571.09
2023-04-30T01:27:04.018Z,99568.53
2023-04-30T01:28:37.170Z,99571.28
2023-04-30T01:30:09.702Z,99579.03
2023-04-30T01:31:44.438Z,99567.03
2023-04-30T01:33:16.650Z,99581.75
2023-04-30T01:34:48.764Z,99579.16
2023-04-30T01:36:39.514Z,99575.69
2023-04-30T01:38:52.063Z,99583.50
2023-04-30T01:40:41.244Z,99583.56
2023-04-30T01:42:44.020Z,99592.16
2023-04-30T01:44:34.272Z,99585.34
2023-04-30T01:46:15.779Z,99592.31
2023-04-30T01:47:52.850Z,99592.41
2023-04-30T01:49:37.907Z,99589.81
2023-04-30T01:51:17.354Z,99593.25
2023-04-30T01:52:54.452Z,99592.41
2023-04-30T01:54:44.954Z,99594.97
2023-04-30T01:56:38.486Z,99590.72
2023-04-30T01:58:13.337Z,99595.88
2023-04-30T01:59:46.542Z,99590.78
2023-04-30T02:02:50.625Z,99593.47
2023-04-30T02:04:22.934Z,99589.25
2023-04-30T02:05:55.755Z,99589.25
2023-04-30T02:07:40.183Z,99587.59
2023-04-30T02:09:12.261Z,99602.31
2023-04-30T02:10:44.352Z,99594.69
2023-04-30T02:12:16.401Z,99589.59
2023-04-30T02:13:48.458Z,99593.97
2023-04-30T02:15:20.790Z,99594.91
2023-04-30T02:16:52.887Z,99598.41
2023-04-30T02:18:24.894Z,99599.28
2023-04-30T02:19:57.013Z,99596.72
2023-04-30T02:21:29.206Z,99597.63
2023-04-30T02:23:01.340Z,99588.22
2023-04-30T02:24:33.389Z,99586.53
2023-04-30T02:26:05.516Z,99594.31
2023-04-30T02:27:37.564Z,99596.88
2023-04-30T02:29:09.704Z,99593.47
2023-04-30T02:32:15.177Z,99593.47
2023-04-30T02:33:47.173Z,99591.78
2023-04-30T02:35:21.566Z,99594.34
2023-04-30T02:36:53.597Z,99594.34
2023-04-30T02:38:25.580Z,99598.66
2023-04-30T02:39:57.929Z,99603.81
2023-04-30T02:41:30.937Z,99604.69
2023-04-30T02:43:03.052Z,99612.41
2023-04-30T02:44:35.418Z,99599.53
2023-04-30T02:46:07.624Z,99606.44
2023-04-30T02:47:39.919Z,99603.03
2023-04-30T02:49:12.018Z,99608.16
2023-04-30T02:50:44.092Z,99612.47
2023-04-30T02:52:16.173Z,99612.47
2023-04-30T02:53:48.302Z,99611.63
2023-04-30T02:55:20.354Z,99614.25
2023-04-30T02:56:52.427Z,99610.84
2023-04-30T02:58:24.446Z,99617.69
2023-04-30T02:59:56.641Z,99618.56
2023-04-30T03:01:28.971Z,99613.44
2023-04-30T03:03:01.398Z,99616.88
2023-04-30T03:04:33.522Z,99620.31
2023-04-30T03:06:05.750Z,99619.44
2023-04-30T03:07:37.913Z,99621.16
2023-04-30T03:09:10.028Z,99622.03
2023-04-30T03:10:42.140Z,99617.78
2023-04-30T03:12:16.818Z,99626.41
2023-04-30T03:13:52.164Z,99625.56
2023-04-30T03:15:24.475Z,99622.97
2023-04-30T03:16:56.557Z,99629.84
2023-04-30T03:18:29.714Z,99626.41
2023-04-30T03:20:01.825Z,99626.44
2023-04-30T03:21:34.020Z,99628.16
2023-04-30T03:23:06.501Z,99634.19
2023-04-30T03:24:38.663Z,99635.91
2023-04-30T03:26:10.761Z,99635.94
2023-04-30T03:27:42.900Z,99625.66
2023-04-30T03:29:14.951Z,99631.66
2023-04-30T03:30:47.313Z,99640.22
2023-04-30T03:32:22.255Z,99636.81
2023-04-30T03:33:54.491Z,99640.22
2023-04-30T03:35:26.624Z,99637.69
2023-04-30T03:36:58.754Z,99639.38
2023-04-30T03:38:31.434Z,99635.09
2023-04-30T03:41:35.342Z,99630.00
2023-04-30T03:43:07.689Z,99641.16
2023-04-30T03:44:39.790Z,99634.28
2023-04-30T03:46:11.968Z,99642.84
2023-04-30T03:47:44.292Z,99638.59
2023-04-30T03:49:16.719Z,99642.00
2023-04-30T03:50:48.883Z,99642.00
2023-04-30T03:52:21.750Z,99654.00
2023-04-30T03:53:53.808Z,99654.84
2023-04-30T03:55:26.471Z,99653.16
2023-04-30T03:56:58.615Z,99654.88
2023-04-30T03:58:31.362Z,99658.31
2023-04-30T04:00:08.125Z,99653.16
2023-04-30T04:01:40.379Z,99650.56
2023-04-30T04:03:13.221Z,99658.28
2023-04-30T04:04:45.502Z,99659.13
2023-04-30T04:06:17.600Z,99658.28
2023-04-30T04:07:49.804Z,99660.81
2023-04-30T04:09:21.936Z,99657.38
2023-04-30T04:10:54.076Z,99658.25
2023-04-30T04:12:26.294Z,99660.84
2023-04-30T04:13:58.387Z,99667.66
2023-04-30T04:15:30.478Z,99660.81
2023-04-30T04:17:02.853Z,99664.22
2023-04-30T04:18:34.955Z,99659.03
2023-04-30T04:20:08.088Z,99665.03
2023-04-30T04:21:40.350Z,99665.00
2023-04-30T04:23:12.634Z,99660.69
2023-04-30T04:24:44.722Z,99660.69
2023-04-30T04:26:19.974Z,99660.66
2023-04-30T04:27:52.846Z,99658.91
2023-04-30T04:29:24.982Z,99674.31
2023-04-30T04:30:57.058Z,99661.34
2023-04-30T04:32:31.089Z,99663.00
2023-04-30T04:34:04.915Z,99662.03
2023-04-30T04:35:37.138Z,99661.09
2023-04-30T04:37:09.242Z,99661.84
2023-04-30T04:38:42.408Z,99665.19
2023-04-30T04:40:14.515Z,99669.38
2023-04-30T04:41:46.601Z,99670.16
2023-04-30T04:43:18.845Z,99664.06
2023-04-30T04:44:50.911Z,99661.41
2023-04-30T04:46:23.724Z,99662.16
2023-04-30T04:47:55.941Z,99670.69
2023-04-30T04:49:28.130Z,99659.41
2023-04-30T04:51:00.251Z,99666.22
2023-04-30T04:52:32.382Z,99655.78
2023-04-30T04:54:04.751Z,99654.84
2023-04-30T04:55:36.844Z,99656.44
2023-04-30T04:57:09.375Z,99656.28
2023-04-30T04:58:42.790Z,99650.97
2023-04-30T05:00:14.818Z,99645.63
2023-04-30T05:01:46.927Z,99645.56
2023-04-30T05:03:21.358Z,99641.16
2023-04-30T05:04:53.640Z,99645.31
2023-04-30T05:06:25.807Z,99648.59
2023-04-30T05:07:57.954Z,99641.53
2023-04-30T05:09:30.104Z,99635.31
2023-04-30T05:11:02.251Z,99637.72
2023-04-30T05:12:34.419Z,99636.75
2023-04-30T05:14:06.683Z,99641.72
2023-04-30T05:15:38.963Z,99637.19
2023-04-30T05:17:11.476Z,99644.72
2023-04-30T05:18:43.584Z,99644.47
2023-04-30T05:20:16.081Z,99639.09
2023-04-30T05:21:48.135Z,99638.94
2023-04-30T05:23:20.218Z,99638.66
2023-04-30T05:24:53.660Z,99640.13
2023-04-30T05:26:25.606Z,99641.38
2023-04-30T05:27:57.964Z,99643.84
2023-04-30T05:29:30.239Z,99643.63
2023-04-30T05:31:02.456Z,99642.53
2023-04-30T05:32:34.798Z,99637.97
2023-04-30T05:34:07.015Z,99635.97
2023-04-30T05:35:39.142Z,99631.41
2023-04-30T05:37:13.152Z,99635.50
2023-04-30T05:38:45.468Z,99633.56
2023-04-30T05:40:17.669Z,99636.84
2023-04-30T05:41:51.572Z,99642.72
2023-04-30T05:43:24.374Z,99640.84
2023-04-30T05:44:56.536Z,99638.16
2023-04-30T05:46:28.672Z,99645.72
2023-04-30T05:48:02.390Z,99640.31
2023-04-30T05:49:36.286Z,99640.16
2023-04-30T05:51:08.566Z,99641.69
2023-04-30T05:52:40.820Z,99645.81
2023-04-30T05:54:12.978Z,99635.25
2023-04-30T05:55:45.076Z,99643.66
2023-04-30T05:57:17.547Z,99634.78
2023-04-30T05:58:51.562Z,99639.75
2023-04-30T06:00:24.113Z,99639.47
2023-04-30T06:01:56.277Z,99643.53
2023-04-30T06:03:30.944Z,99638.03
2023-04-30T06:05:03.788Z,99628.31
2023-04-30T06:06:36.340Z,99630.72
2023-04-30T06:08:08.544Z,99633.06
2023-04-30T06:09:40.930Z,99631.03
2023-04-30T06:11:13.742Z,99636.72
2023-04-30T06:12:45.847Z,99623.47
2023-04-30T06:14:18.946Z,99628.31
2023-04-30T06:15:51.145Z,99622.88
2023-04-30T06:17:23.308Z,99627.75
2023-04-30T06:18:55.483Z,99635.31
2023-04-30T06:20:27.854Z,99629.06
2023-04-30T06:22:00.066Z,99633.09
2023-04-30T06:23:32.256Z,99627.63
2023-04-30T06:25:04.616Z,99633.41
2023-04-30T06:26:38.324Z,99621.06
2023-04-30T06:28:11.004Z,99632.03
2023-04-30T06:29:43.074Z,99626.63
2023-04-30T06:31:15.290Z,99629.06
2023-04-30T06:32:47.455Z,99621.06
2023-04-30T06:34:20.395Z,99635.50
2023-04-30T06:35:55.705Z,99637.97
2023-04-30T06:37:27.864Z,99629.97
2023-04-30T06:39:00.119Z,99631.38
2023-04-30T06:40:32.312Z,99638.03
2023-04-30T06:42:04.748Z,99630.97
2023-04-30T06:43:36.963Z,99635.88
2023-04-30T06:45:09.702Z,99628.63
2023-04-30T06:46:41.939Z,99631.00
2023-04-30T06:48:14.064Z,99631.59
2023-04-30T06:49:46.259Z,99637.41
2023-04-30T06:51:18.366Z,99636.44
2023-04-30T06:52:50.618Z,99640.56
2023-04-30T06:54:27.124Z,99638.50
2023-04-30T06:55:59.265Z,99635.75
2023-04-30T06:57:32.253Z,99641.44
2023-04-30T06:59:04.408Z,99630.50
2023-04-30T07:00:36.607Z,99638.88
2023-04-30T07:02:08.762Z,99639.25
2023-04-30T07:03:41.089Z,99637.19
2023-04-30T07:05:13.564Z,99635.09
2023-04-30T07:06:46.083Z,99635.59
2023-04-30T07:08:18.271Z,99636.13
2023-04-30T07:09:51.792Z,99629.72
2023-04-30T07:11:25.412Z,99633.72
2023-04-30T07:12:57.799Z,99636.78
2023-04-30T07:14:29.918Z,99638.44
2023-04-30T07:16:02.080Z,99640.78
2023-04-30T07:17:34.398Z,99647.47
2023-04-30T07:19:06.649Z,99642.06
2023-04-30T07:20:38.780Z,99636.50
2023-04-30T07:22:10.942Z,99645.84
2023-04-30T07:23:44.592Z,99646.47
2023-04-30T07:25:16.947Z,99645.34
2023-04-30T07:26:49.242Z,99646.19
2023-04-30T07:28:21.372Z,99645.13
2023-04-30T07:29:53.707Z,99647.84
2023-04-30T07:31:26.410Z,99647.75
2023-04-30T07:32:58.620Z,99645.84
2023-04-30T07:34:33.663Z,99648.34
2023-04-30T07:36:06.255Z,99658.63
2023-04-30T07:37:40.470Z,99650.56
2023-04-30T07:39:13.311Z,99654.91
2023-04-30T07:40:45.600Z,99651.34
2023-04-30T07:42:17.716Z,99644.34
2023-04-30T07:43:49.857Z,99658.91
2023-04-30T07:45:22.043Z,99660.69
2023-04-30T07:46:54.290Z,99666.81
2023-04-30T07:48:26.550Z,99670.44
2023-04-30T07:49:58.865Z,99662.53
2023-04-30T07:51:31.350Z,99667.75
2023-04-30T07:53:03.689Z,99665.13
2023-04-30T07:54:36.908Z,99660.63
2023-04-30T07:56:09.059Z,99655.16
2023-04-30T07:57:41.767Z,99658.56
2023-04-30T07:59:13.906Z,99659.28
2023-04-30T08:00:46.389Z,99661.59
2023-04-30T08:02:18.765Z,99660.44
2023-04-30T08:03:51.079Z,99653.59
2023-04-30T08:05:23.455Z,99658.66
2023-04-30T08:06:55.595Z,99656.81
2023-04-30T08:08:27.871Z,99663.69
2023-04-30T08:10:00.092Z,99661.56
2023-04-30T08:11:32.314Z,99655.25
2023-04-30T08:13:05.547Z,99654.25
2023-04-30T08:14:37.847Z,99649.78
2023-04-30T08:16:10.077Z,99661.03
2023-04-30T08:17:42.498Z,99662.69
2023-04-30T08:19:14.952Z,99660.84
2023-04-30T08:20:47.317Z,99660.84
2023-04-30T08:22:19.493Z,99658.19
2023-04-30T08:23:52.067Z,99647.47
2023-04-30T08:25:24.215Z,99651.66
2023-04-30T08:26:56.467Z,99651.38
2023-04-30T08:28:28.634Z,99646.84
2023-04-30T08:30:00.838Z,99650.16
2023-04-30T08:31:33.118Z,99649.16
2023-04-30T08:33:05.716Z,99650.81
2023-04-30T08:34:38.063Z,99648.19
2023-04-30T08:36:10.221Z,99649.97
2023-04-30T08:37:42.327Z,99644.69
2023-04-30T08:39:14.645Z,99644.69
2023-04-30T08:40:53.590Z,99647.59
2023-04-30T08:42:26.938Z,99650.13
2023-04-30T08:43:59.386Z,99650.53
2023-04-30T08:45:37.459Z,99640.13
2023-04-30T08:47:13.558Z,99640.97
2023-04-30T08:48:45.848Z,99649.59
2023-04-30T08:50:18.128Z,99655.66
2023-04-30T08:51:50.646Z,99646.88
2023-04-30T08:53:22.867Z,99653.03
2023-04-30T08:54:55.673Z,99657.91
2023-04-30T08:56:28.067Z,99655.03
2023-04-30T08:58:00.247Z,99657.41
2023-04-30T08:59:32.537Z,99652.09
2023-04-30T09:01:08.487Z,99655.22
2023-04-30T09:02:42.901Z,99652.47
2023-04-30T09:04:15.250Z,99646.97
2023-04-30T09:05:47.520Z,99648.50
2023-04-30T09:07:21.212Z,99651.81
2023-04-30T09:08:54.852Z,99648.25
2023-04-30T09:10:27.233Z,99648.25
2023-04-30T09:12:19.392Z,99650.41
2023-04-30T09:13:53.802Z,99637.56
2023-04-30T09:15:26.645Z,99641.09
2023-04-30T09:17:00.232Z,99637.38
2023-04-30T09:18:39.972Z,99633.34
2023-04-30T09:20:13.656Z,99625.25
2023-04-30T09:21:47.468Z,99626.63
2023-04-30T09:23:19.872Z,99623.56
2023-04-30T09:24:52.331Z,99623.91
2023-04-30T09:26:39.869Z,99615.44
2023-04-30T09:28:14.107Z,99615.09
2023-04-30T09:29:47.109Z,99617.44
2023-04-30T09:31:22.578Z,99612.69
2023-04-30T09:32:57.657Z,99608.19
2023-04-30T09:34:38.764Z,99607.38
2023-04-30T09:36:11.610Z,99609.34
2023-04-30T09:37:43.814Z,99601.47
2023-04-30T09:39:17.886Z,99599.41
2023-04-30T09:40:50.188Z,99611.22
2023-04-30T09:42:23.021Z,99597.88
2023-04-30T09:43:56.411Z,99607.75
2023-04-30T09:45:28.350Z,99595.94
2023-04-30T09:47:00.650Z,99598.56
2023-04-30T09:48:32.936Z,99593.31
2023-04-30T09:50:06.569Z,99596.78
2023-04-30T09:51:57.408Z,99596.22
2023-04-30T09:53:29.753Z,99593.38
2023-04-30T09:55:01.995Z,99592.09
2023-04-30T09:56:36.413Z,99593.41
2023-04-30T09:58:08.653Z,99583.66
2023-04-30T09:59:45.046Z,99587.44
2023-04-30T10:01:18.710Z,99582.94
2023-04-30T10:02:51.545Z,99578.72
2023-04-30T10:04:23.839Z,99582.94
2023-04-30T10:05:59.042Z,99578.22
2023-04-30T10:07:36.437Z,99570.91
2023-04-30T10:09:09.978Z,99565.66
2023-04-30T10:10:44.127Z,99565.59
2023-04-30T10:12:18.970Z,99568.22
2023-04-30T10:13:55.356Z,99566.34
2023-04-30T10:15:34.345Z,99565.28
2023-04-30T10:17:14.099Z,99567.91
2023-04-30T10:18:47.306Z,99568.28
2023-04-30T10:20:19.820Z,99569.22
2023-04-30T10:21:52.297Z,99578.88
2023-04-30T10:23:25.105Z,99567.72
2023-04-30T10:24:57.469Z,99567.09
2023-04-30T10:26:30.937Z,99568.19
2023-04-30T10:28:04.879Z,99563.97
2023-04-30T10:29:37.422Z,99568.38
2023-04-30T10:31:11.495Z,99566.88
2023-04-30T10:33:17.026Z,99567.78
2023-04-30T10:36:32.357Z,99543.09
2023-04-30T10:38:12.611Z,99554.25
2023-04-30T10:39:44.873Z,99556.03
2023-04-30T10:41:20.667Z,99558.00
2023-04-30T10:42:55.114Z,99556.63
2023-04-30T10:44:27.951Z,99542.38
2023-04-30T10:46:00.540Z,99546.50
2023-04-30T10:47:33.123Z,99545.09
2023-04-30T10:49:05.873Z,99539.44
2023-04-30T10:50:46.265Z,99531.00
2023-04-30T10:52:28.246Z,99530.19
2023-04-30T10:54:00.987Z,99538.00
2023-04-30T10:55:33.943Z,99530.63
2023-04-30T10:57:18.360Z,99529.38
2023-04-30T10:58:51.648Z,99532.03
2023-04-30T11:00:27.610Z,99528.75
2023-04-30T11:02:01.963Z,99537.69
2023-04-30T11:03:35.779Z,99529.44
2023-04-30T11:05:08.242Z,99524.75
2023-04-30T11:07:11.345Z,99523.19
2023-04-30T11:08:46.175Z,99516.78
2023-04-30T11:10:25.789Z,99523.31
2023-04-30T11:12:30.598Z,99526.59
2023-04-30T11:14:02.611Z,99526.28
2023-04-30T11:15:46.333Z,99524.88
2023-04-30T11:17:24.563Z,99527.09
2023-04-30T11:19:12.511Z,99530.88
2023-04-30T11:20:52.223Z,99525.84
2023-04-30T11:22:25.449Z,99524.56
2023-04-30T11:24:02.994Z,99523.13
2023-04-30T11:25:46.581Z,99520.00
2023-04-30T11:27:26.230Z,99522.31
2023-04-30T11:29:00.748Z,99525.50
2023-04-30T11:30:33.299Z,99517.28
2023-04-30T11:32:06.053Z,99504.94
2023-04-30T11:33:41.836Z,99513.16
2023-04-30T11:35:16.769Z,99521.19
2023-04-30T11:36:48.978Z,99509.91
2023-04-30T11:38:23.461Z,99511.91
2023-04-30T11:39:56.090Z,99510.53
2023-04-30T11:41:30.036Z,99504.44
2023-04-30T11:43:02.169Z,99513.72
2023-04-30T11:44:34.775Z,99519.28
2023-04-30T11:46:15.246Z,99517.50
2023-04-30T11:47:49.229Z,99509.28
2023-04-30T11:49:21.720Z,99509.28
2023-04-30T11:50:53.909Z,99512.41
2023-04-30T11:52:27.214Z,99515.75
2023-04-30T11:53:59.304Z,99513.38
2023-04-30T11:55:31.693Z,99509.44
2023-04-30T11:57:04.821Z,99500.47
2023-04-30T11:58:41.056Z,99512.50
2023-04-30T12:00:18.661Z,99504.44
2023-04-30T12:01:50.927Z,99497.25
2023-04-30T12:03:23.126Z,99505.06
2023-04-30T12:04:55.411Z,99495.47
2023-04-30T12:06:29.235Z,99511.78
2023-04-30T12:08:05.134Z,99502.63
2023-04-30T12:09:54.584Z,99491.91
2023-04-30T12:11:29.474Z,99495.03
2023-04-30T12:13:01.708Z,99498.97
2023-04-30T12:14:37.038Z,99481.56
2023-04-30T12:16:09.612Z,99485.84
2023-04-30T12:17:42.091Z,99491.00
2023-04-30T12:19:14.600Z,99486.44
2023-04-30T12:20:46.918Z,99483.38
2023-04-30T12:22:19.135Z,99485.81
2023-04-30T12:23:51.296Z,99487.31
2023-04-30T12:25:24.011Z,99479.75
2023-04-30T12:26:56.348Z,99474.28
2023-04-30T12:28:28.750Z,99475.56
2023-04-30T12:30:04.936Z,99480.72
2023-04-30T12:31:38.364Z,99471.16
2023-04-30T12:33:11.189Z,99471.72
2023-04-30T12:34:43.553Z,99468.13
2023-04-30T12:36:16.036Z,99476.16
2023-04-30T12:37:53.310Z,99472.16
2023-04-30T12:39:25.492Z,99470.88
2023-04-30T12:40:58.067Z,99471.16
2023-04-30T12:42:36.445Z,99472.50
2023-04-30T12:44:42.577Z,99468.06
2023-04-30T12:46:26.870Z,99463.88
2023-04-30T12:47:59.156Z,99463.00
2023-04-30T12:49:34.799Z,99459.97
2023-04-30T12:51:07.540Z,99455.13
2023-04-30T12:52:45.062Z,99458.59
2023-04-30T12:54:33.251Z,99453.53
2023-04-30T12:56:24.409Z,99463.41
2023-04-30T12:58:09.341Z,99455.50
2023-04-30T12:59:59.058Z,99457.34
2023-04-30T13:01:31.420Z,99447.75
2023-04-30T13:03:04.699Z,99450.38
2023-04-30T13:04:37.078Z,99451.78
2023-04-30T13:06:10.774Z,99445.41
2023-04-30T13:07:43.070Z,99447.22
2023-04-30T13:09:15.804Z,99443.97
2023-04-30T13:10:49.049Z,99449.94
2023-04-30T13:12:21.074Z,99448.69
2023-04-30T13:13:55.389Z,99449.88
2023-04-30T13:15:27.826Z,99447.53
2023-04-30T13:17:00.331Z,99441.59
2023-04-30T13:18:33.528Z,99443.50
2023-04-30T13:20:05.874Z,99442.72
2023-04-30T13:21:38.110Z,99440.94
2023-04-30T13:23:12.328Z,99439.09
2023-04-30T13:24:44.605Z,99438.88
2023-04-30T13:26:16.905Z,99444.16
2023-04-30T13:27:49.243Z,99431.94
2023-04-30T13:29:21.494Z,99442.06
2023-04-30T13:30:53.681Z,99441.88
2023-04-30T13:32:26.007Z,99441.81
2023-04-30T13:33:58.274Z,99443.09
2023-04-30T13:35:30.548Z,99442.75
2023-04-30T13:37:02.783Z,99442.03
2023-04-30T13:38:35.056Z,99438.00
2023-04-30T13:40:08.775Z,99438.84
2023-04-30T13:41:41.019Z,99433.81
2023-04-30T13:43:13.866Z,99433.50
2023-04-30T13:44:48.201Z,99441.50
2023-04-30T13:46:20.486Z,99435.63
2023-04-30T13:47:52.693Z,99427.50
2023-04-30T13:49:24.946Z,99433.75
2023-04-30T13:50:57.196Z,99423.94
2023-04-30T13:52:29.553Z,99427.53
2023-04-30T13:54:01.923Z,99430.97
2023-04-30T13:55:34.089Z,99418.09
2023-04-30T13:57:06.937Z,99416.28
2023-04-30T13:58:39.554Z,99414.13
2023-04-30T14:00:12.400Z,99406.28
2023-04-30T14:01:44.893Z,99413.53
2023-04-30T14:03:17.885Z,99413.44
2023-04-30T14:05:02.522Z,99422.72
2023-04-30T14:06:39.115Z,99417.13
2023-04-30T14:08:11.683Z,99411.28
2023-04-30T14:09:43.949Z,99409.31
2023-04-30T14:11:16.153Z,99413.50
2023-04-30T14:12:50.549Z,99410.09
2023-04-30T14:14:22.847Z,99407.56
2023-04-30T14:15:56.432Z,99410.16
2023-04-30T14:17:30.093Z,99416.28
2023-04-30T14:19:02.416Z,99411.38
2023-04-30T14:20:34.607Z,99408.09
2023-04-30T14:22:06.838Z,99415.94
2023-04-30T14:23:39.694Z,99412.19
2023-04-30T14:25:13.217Z,99413.50
2023-04-30T14:26:47.778Z,99408.63
2023-04-30T14:28:19.956Z,99415.94
2023-04-30T14:29:52.277Z,99402.81
2023-04-30T14:31:28.294Z,99405.88
2023-04-30T14:33:00.385Z,99407.13
2023-04-30T14:34:33.198Z,99414.22
2023-04-30T14:36:06.377Z,99411.47
2023-04-30T14:37:38.655Z,99397.97
2023-04-30T14:39:10.750Z,99408.78
2023-04-30T14:40:44.420Z,99400.59
2023-04-30T14:42:16.744Z,99400.66
2023-04-30T14:43:48.980Z,99406.91
2023-04-30T14:45:21.230Z,99408.38
2023-04-30T14:46:53.662Z,99405.72
2023-04-30T14:48:26.555Z,99403.41
2023-04-30T14:49:59.348Z,99406.91
2023-04-30T14:51:32.658Z,99413.50
2023-04-30T14:54:36.783Z,99413.25
2023-04-30T14:56:09.190Z,99411.84
2023-04-30T14:57:41.485Z,99409.56
2023-04-30T14:59:13.796Z,99412.47
2023-04-30T15:00:46.613Z,99407.75
2023-04-30T15:02:18.864Z,99415.41
2023-04-30T15:03:51.493Z,99411.59
2023-04-30T15:05:24.023Z,99408.19
2023-04-30T15:06:56.234Z,99414.56
2023-04-30T15:08:28.637Z,99413.38
2023-04-30T15:10:01.252Z,99411.22
2023-04-30T15:11:33.375Z,99412.28
2023-04-30T15:13:05.572Z,99414.81
2023-04-30T15:14:37.775Z,99422.25
2023-04-30T15:16:10.303Z,99412.50
2023-04-30T15:17:42.660Z,99423.50
2023-04-30T15:19:14.869Z,99408.63
2023-04-30T15:20:47.648Z,99412.88
2023-04-30T15:22:19.706Z,99411.06
2023-04-30T15:23:51.952Z,99412.28
2023-04-30T15:25:24.554Z,99406.88
2023-04-30T15:26:57.033Z,99411.06
2023-04-30T15:28:30.384Z,99407.13
2023-04-30T15:30:02.457Z,99413.28
2023-04-30T15:31:35.960Z,99411.00
2023-04-30T15:33:08.161Z,99412.16
2023-04-30T15:34:40.439Z,99406.56
2023-04-30T15:36:12.737Z,99412.75
2023-04-30T15:37:45.365Z,99411.25
2023-04-30T15:39:18.311Z,99412.94
2023-04-30T15:40:50.552Z,99419.81
2023-04-30T15:42:22.767Z,99419.00
2023-04-30T15:43:54.888Z,99424.72
2023-04-30T15:45:28.473Z,99423.34
2023-04-30T15:47:00.810Z,99422.22
2023-04-30T15:48:33.124Z,99412.94
2023-04-30T15:50:05.958Z,99418.34
2023-04-30T15:51:38.986Z,99422.66
2023-04-30T15:53:11.425Z,99426.00
2023-04-30T15:54:43.710Z,99423.59
2023-04-30T15:56:15.870Z,99421.19
2023-04-30T15:59:20.006Z,99410.22
2023-04-30T16:00:52.268Z,99428.78
2023-04-30T16:02:24.412Z,99423.94
2023-04-30T16:03:57.005Z,99428.88
2023-04-30T16:05:30.278Z,99424.59
2023-04-30T16:07:02.278Z,99432.16
2023-04-30T16:08:34.657Z,99426.19
2023-04-30T16:10:07.451Z,99422.13
2023-04-30T16:11:40.621Z,99427.50
2023-04-30T16:13:12.892Z,99429.50
2023-04-30T16:14:45.089Z,99430.13
2023-04-30T16:16:17.508Z,99425.91
2023-04-30T16:17:49.863Z,99435.72
2023-04-30T16:19:22.119Z,99436.78
2023-04-30T16:20:55.050Z,99432.75
2023-04-30T16:22:30.750Z,99438.34
2023-04-30T16:24:02.842Z,99439.72
2023-04-30T16:25:35.639Z,99443.69
2023-04-30T16:27:08.811Z,99439.81
2023-04-30T16:28:41.032Z,99448.84
2023-04-30T16:30:13.629Z,99443.34
2023-04-30T16:31:45.974Z,99444.81
2023-04-30T16:33:18.180Z,99445.28
2023-04-30T16:34:50.276Z,99451.59
2023-04-30T16:36:22.746Z,99452.84
2023-04-30T16:37:55.580Z,99455.03
2023-04-30T16:39:27.689Z,99448.34
2023-04-30T16:41:00.162Z,99450.97
2023-04-30T16:42:32.399Z,99454.00
2023-04-30T16:44:04.471Z,99461.13
2023-04-30T16:45:36.554Z,99464.72
2023-04-30T16:47:09.377Z,99463.88
2023-04-30T16:48:41.435Z,99459.56
2023-04-30T16:50:13.492Z,99456.28
2023-04-30T16:51:46.367Z,99464.38
2023-04-30T16:53:18.461Z,99470.84
2023-04-30T16:54:50.590Z,99466.09
2023-04-30T16:57:54.549Z,99474.19
2023-04-30T16:59:27.429Z,99471.75
2023-04-30T17:00:59.750Z,99477.47
2023-04-30T17:02:32.006Z,99475.31
2023-04-30T17:04:04.857Z,99475.69
2023-04-30T17:05:37.513Z,99472.88
2023-04-30T17:07:09.571Z,99475.09
2023-04-30T17:08:41.827Z,99479.97
2023-04-30T17:10:14.886Z,99478.81
2023-04-30T17:11:48.271Z,99481.81
2023-04-30T17:13:20.553Z,99482.53
2023-04-30T17:14:52.652Z,99481.28
2023-04-30T17:16:24.840Z,99480.34
2023-04-30T17:17:58.234Z,99489.38
2023-04-30T17:19:30.236Z,99479.94
2023-04-30T17:21:02.373Z,99486.78
2023-04-30T17:22:34.566Z,99488.22
2023-04-30T17:24:07.266Z,99488.72
2023-04-30T17:25:39.635Z,99490.59
2023-04-30T17:27:12.165Z,99496.88
2023-04-30T17:28:44.384Z,99499.72
2023-04-30T17:30:16.602Z,99504.00
2023-04-30T17:31:48.958Z,99504.72
2023-04-30T17:33:21.206Z,99506.22
2023-04-30T17:34:53.578Z,99502.41
2023-04-30T17:36:25.839Z,99504.41
2023-04-30T17:37:57.901Z,99509.25
2023-04-30T17:39:34.038Z,99511.50
2023-04-30T17:41:06.339Z,99511.34
2023-04-30T17:42:39.460Z,99511.78
2023-04-30T17:44:12.196Z,99513.00
2023-04-30T17:45:44.729Z,99515.97
2023-04-30T17:47:16.889Z,99512.81
2023-04-30T17:48:49.048Z,99522.84
2023-04-30T17:50:21.611Z,99534.53
2023-04-30T17:51:53.734Z,99542.66
2023-04-30T17:53:25.983Z,99545.47
2023-04-30T17:55:01.104Z,99557.03
2023-04-30T17:56:33.936Z,99555.03
2023-04-30T17:58:07.356Z,99552.75
2023-04-30T17:59:39.424Z,99566.66
2023-04-30T18:01:11.572Z,99565.72
2023-04-30T18:02:44.974Z,99569.53
2023-04-30T18:04:22.911Z,99572.59
2023-04-30T18:05:55.991Z,99580.09
2023-04-30T18:07:28.760Z,99572.97
2023-04-30T18:09:02.256Z,99575.56
2023-04-30T18:10:34.575Z,99578.38
2023-04-30T18:12:06.808Z,99586.44
2023-04-30T18:13:39.131Z,99584.88
2023-04-30T18:15:13.571Z,99586.72
2023-04-30T18:16:45.842Z,99590.94
2023-04-30T18:18:20.961Z,99594.25
2023-04-30T18:19:53.323Z,99596.72
2023-04-30T18:21:25.956Z,99601.69
2023-04-30T18:22:58.287Z,99606.00
2023-04-30T18:24:30.560Z,99609.31
2023-04-30T18:26:03.238Z,99614.34
2023-04-30T18:27:35.482Z,99606.50
2023-04-30T18:29:08.435Z,99617.81
2023-04-30T18:30:41.521Z,99613.28
2023-04-30T18:32:14.095Z,99613.28
2023-04-30T18:33:46.431Z,99619.38